createdAt,value
2017-07-27T00:00:46.990Z,92.6
2017-07-27T00:01:45.937Z,92.6
2017-07-27T00:02:45.410Z,92.7
2017-07-27T00:03:44.989Z,92.6
2017-07-27T00:04:44.080Z,92.6
2017-07-27T00:05:14.591Z,92.6
2017-07-27T00:05:45.099Z,92.6
2017-07-27T00:06:42.679Z,92.7
2017-07-27T00:07:41.885Z,92.7
2017-07-27T00:08:40.845Z,92.6
2017-07-27T00:09:40.324Z,92.7
2017-07-27T00:10:39.906Z,92.7
2017-07-27T00:11:38.860Z,92.7
2017-07-27T00:12:38.096Z,92.7
2017-07-27T00:13:37.288Z,92.8
2017-07-27T00:14:36.773Z,92.8
2017-07-27T00:15:07.345Z,92.8
2017-07-27T00:15:37.735Z,92.8
2017-07-27T00:16:08.245Z,92.8
2017-07-27T00:16:38.519Z,92.8
2017-07-27T00:17:08.923Z,92.8
2017-07-27T00:18:33.762Z,92.7
2017-07-27T00:20:32.508Z,92.8
2017-07-27T00:21:31.608Z,92.8
2017-07-27T00:22:30.698Z,92.8
2017-07-27T00:23:30.410Z,92.8
2017-07-27T00:24:29.634Z,92.8
2017-07-27T00:25:28.831Z,92.9
2017-07-27T00:26:27.914Z,92.9
2017-07-27T00:27:27.493Z,92.9
2017-07-27T00:28:26.346Z,92.9
2017-07-27T00:29:25.808Z,92.9
2017-07-27T00:31:24.278Z,92.9
2017-07-27T00:32:23.366Z,92.9
2017-07-27T00:34:21.970Z,93
2017-07-27T00:35:21.183Z,92.9
2017-07-27T00:36:20.889Z,93
2017-07-27T00:37:20.092Z,93
2017-07-27T00:38:19.281Z,93
2017-07-27T00:39:18.464Z,93
2017-07-27T00:40:17.528Z,93
2017-07-27T00:41:17.244Z,93
2017-07-27T00:42:16.445Z,93
2017-07-27T00:43:15.732Z,93
2017-07-27T00:44:14.939Z,92.9
2017-07-27T00:45:14.011Z,92.9
2017-07-27T00:46:13.109Z,93
2017-07-27T00:47:12.810Z,93
2017-07-27T00:48:11.902Z,92.9
2017-07-27T00:49:10.866Z,92.9
2017-07-27T00:50:10.329Z,93
2017-07-27T00:51:09.807Z,92.9
2017-07-27T00:52:09.015Z,92.9
2017-07-27T00:53:08.104Z,92.8
2017-07-27T00:54:07.190Z,92.8
2017-07-27T00:55:06.898Z,92.8
2017-07-27T00:56:05.995Z,92.7
2017-07-27T00:57:05.196Z,92.7
2017-07-27T00:58:04.295Z,92.7
2017-07-27T00:59:03.884Z,92.6
2017-07-27T01:00:03.105Z,92.6
2017-07-27T01:01:02.464Z,92.6
2017-07-27T01:02:01.552Z,92.6
2017-07-27T01:03:01.140Z,92.7
2017-07-27T01:04:00.366Z,92.7
2017-07-27T01:04:59.466Z,92.6
2017-07-27T01:05:58.810Z,92.6
2017-07-27T01:06:58.028Z,92.6
2017-07-27T01:07:57.231Z,92.6
2017-07-27T01:08:56.190Z,92.6
2017-07-27T01:09:55.931Z,92.6
2017-07-27T01:10:55.130Z,92.6
2017-07-27T01:11:54.221Z,92.6
2017-07-27T01:12:24.730Z,92.6
2017-07-27T01:12:55.120Z,92.6
2017-07-27T01:13:25.667Z,92.6
2017-07-27T01:13:56.189Z,92.5
2017-07-27T01:14:26.586Z,92.5
2017-07-27T01:15:51.455Z,92.6
2017-07-27T01:16:50.421Z,92.6
2017-07-27T01:17:50.008Z,92.6
2017-07-27T01:18:49.214Z,92.7
2017-07-27T01:20:47.808Z,92.7
2017-07-27T01:21:47.009Z,92.7
2017-07-27T01:22:46.222Z,92.7
2017-07-27T01:23:45.310Z,92.7
2017-07-27T01:24:44.510Z,92.7
2017-07-27T01:25:15.024Z,92.7
2017-07-27T01:25:45.539Z,92.6
2017-07-27T01:26:16.058Z,92.6
2017-07-27T01:27:42.204Z,92.7
2017-07-27T01:28:41.897Z,92.7
2017-07-27T01:29:40.997Z,92.7
2017-07-27T01:30:40.191Z,92.6
2017-07-27T01:31:39.261Z,92.6
2017-07-27T01:32:38.848Z,92.5
2017-07-27T01:33:37.944Z,92.5
2017-07-27T01:34:37.415Z,92.5
2017-07-27T01:35:36.508Z,92.5
2017-07-27T01:36:35.708Z,92.6
2017-07-27T01:37:34.918Z,92.6
2017-07-27T01:38:34.621Z,92.6
2017-07-27T01:39:33.594Z,92.7
2017-07-27T01:40:32.793Z,92.7
2017-07-27T01:41:32.376Z,92.7
2017-07-27T01:43:30.358Z,92.7
2017-07-27T01:44:30.068Z,92.7
2017-07-27T01:47:27.827Z,92.7
2017-07-27T01:48:26.795Z,92.7
2017-07-27T01:49:26.049Z,92.7
2017-07-27T01:50:25.521Z,92.7
2017-07-27T01:51:24.721Z,92.7
2017-07-27T01:52:23.807Z,92.7
2017-07-27T01:53:23.016Z,92.7
2017-07-27T01:54:22.725Z,92.8
2017-07-27T01:55:21.928Z,92.8
2017-07-27T01:56:21.007Z,92.8
2017-07-27T01:57:20.093Z,92.8
2017-07-27T01:58:19.290Z,92.8
2017-07-27T01:59:18.863Z,92.9
2017-07-27T02:00:18.061Z,92.9
2017-07-27T02:01:17.259Z,92.8
2017-07-27T02:02:16.463Z,92.8
2017-07-27T02:04:14.824Z,92.9
2017-07-27T02:04:45.327Z,92.9
2017-07-27T02:05:15.835Z,92.9
2017-07-27T02:05:46.123Z,92.9
2017-07-27T02:06:16.640Z,92.9
2017-07-27T02:06:47.153Z,92.9
2017-07-27T02:07:17.547Z,92.8
2017-07-27T02:07:47.937Z,92.8
2017-07-27T02:08:18.213Z,92.7
2017-07-27T02:09:11.262Z,92.7
2017-07-27T02:10:10.230Z,92.7
2017-07-27T02:11:09.923Z,92.8
2017-07-27T02:12:09.012Z,92.8
2017-07-27T02:13:08.217Z,92.8
2017-07-27T02:14:07.418Z,92.8
2017-07-27T02:15:06.622Z,92.9
2017-07-27T02:16:05.823Z,92.9
2017-07-27T02:17:05.404Z,92.9
2017-07-27T02:18:04.487Z,92.9
2017-07-27T02:19:03.447Z,92.9
2017-07-27T02:20:02.801Z,92.9
2017-07-27T02:21:02.268Z,92.9
2017-07-27T02:22:01.353Z,92.9
2017-07-27T02:23:00.924Z,92.9
2017-07-27T02:24:00.134Z,92.9
2017-07-27T02:24:59.221Z,92.9
2017-07-27T02:25:58.420Z,92.8
2017-07-27T02:26:57.629Z,92.8
2017-07-27T02:27:56.826Z,92.8
2017-07-27T02:28:56.409Z,92.8
2017-07-27T02:29:55.488Z,92.9
2017-07-27T02:30:54.691Z,92.9
2017-07-27T02:31:54.275Z,92.9
2017-07-27T02:32:53.371Z,92.9
2017-07-27T02:33:52.570Z,93
2017-07-27T02:35:02.258Z,93
2017-07-27T02:35:50.899Z,93.1
2017-07-27T02:36:21.304Z,93.1
2017-07-27T02:36:51.696Z,93.1
2017-07-27T02:37:49.149Z,93.1
2017-07-27T02:38:48.844Z,93.1
2017-07-27T02:39:48.056Z,93.2
2017-07-27T02:40:47.031Z,93.1
2017-07-27T02:41:46.635Z,93.1
2017-07-27T02:42:45.617Z,93.1
2017-07-27T02:43:44.821Z,93.1
2017-07-27T02:44:44.424Z,93.1
2017-07-27T02:45:43.527Z,93
2017-07-27T02:47:42.115Z,93
2017-07-27T02:48:41.329Z,93.1
2017-07-27T02:49:40.519Z,93
2017-07-27T02:50:39.601Z,93.1
2017-07-27T02:51:38.705Z,93.1
2017-07-27T02:52:38.408Z,93.1
2017-07-27T02:53:37.486Z,93.1
2017-07-27T02:54:36.705Z,93.1
2017-07-27T02:55:35.924Z,93
2017-07-27T02:56:35.008Z,93
2017-07-27T02:57:34.201Z,93
2017-07-27T02:59:32.798Z,93.1
2017-07-27T03:00:32.261Z,93.1
2017-07-27T03:01:02.780Z,93.1
2017-07-27T03:01:33.291Z,93.1
2017-07-27T03:02:03.689Z,93.1
2017-07-27T03:03:29.949Z,93.1
2017-07-27T03:05:28.180Z,93.1
2017-07-27T03:06:27.389Z,93.1
2017-07-27T03:07:26.982Z,93.2
2017-07-27T03:08:26.178Z,93.2
2017-07-27T03:09:25.388Z,93.2
2017-07-27T03:10:24.347Z,93.2
2017-07-27T03:11:23.924Z,93.3
2017-07-27T03:11:54.707Z,93.3
2017-07-27T03:12:25.109Z,93.3
2017-07-27T03:12:55.651Z,93.3
2017-07-27T03:14:21.519Z,93.4
2017-07-27T03:15:20.720Z,93.4
2017-07-27T03:16:19.920Z,93.4
2017-07-27T03:17:19.126Z,93.4
2017-07-27T03:18:18.339Z,93.4
2017-07-27T03:19:17.935Z,93.5
2017-07-27T03:20:17.133Z,93.5
2017-07-27T03:21:16.326Z,93.5
2017-07-27T03:22:15.534Z,93.5
2017-07-27T03:23:14.724Z,93.5
2017-07-27T03:24:13.917Z,93.5
2017-07-27T03:25:13.003Z,93.5
2017-07-27T03:26:12.352Z,93.5
2017-07-27T03:27:11.568Z,93.5
2017-07-27T03:28:11.163Z,93.5
2017-07-27T03:29:10.130Z,93.5
2017-07-27T03:30:09.497Z,93.5
2017-07-27T03:30:40.021Z,93.5
2017-07-27T03:31:10.439Z,93.5
2017-07-27T03:31:40.957Z,93.5
2017-07-27T03:33:07.335Z,93.5
2017-07-27T03:34:06.543Z,93.5
2017-07-27T03:35:05.520Z,93.4
2017-07-27T03:36:04.609Z,93.5
2017-07-27T03:37:04.208Z,93.5
2017-07-27T03:38:03.288Z,93.5
2017-07-27T03:39:02.493Z,93.5
2017-07-27T03:40:01.711Z,93.4
2017-07-27T03:41:01.182Z,93.4
2017-07-27T03:42:00.381Z,93.4
2017-07-27T03:42:59.351Z,93.3
2017-07-27T03:43:58.925Z,93.3
2017-07-27T03:44:57.904Z,93.3
2017-07-27T03:45:57.125Z,93.3
2017-07-27T03:46:56.708Z,93.3
2017-07-27T03:47:55.777Z,93.2
2017-07-27T03:48:54.970Z,93.2
2017-07-27T03:49:53.928Z,93.2
2017-07-27T03:50:53.629Z,93.2
2017-07-27T03:51:52.603Z,93.2
2017-07-27T03:52:51.805Z,93.2
2017-07-27T03:53:22.315Z,93.2
2017-07-27T03:53:52.841Z,93.2
2017-07-27T03:54:23.361Z,93.2
2017-07-27T03:54:53.755Z,93.2
2017-07-27T03:55:24.147Z,93.2
2017-07-27T03:56:48.771Z,93.1
2017-07-27T03:57:47.966Z,93
2017-07-27T03:58:47.560Z,93
2017-07-27T03:59:46.764Z,92.9
2017-07-27T04:00:45.956Z,92.9
2017-07-27T04:01:45.046Z,92.8
2017-07-27T04:02:44.018Z,92.8
2017-07-27T04:03:43.604Z,92.7
2017-07-27T04:04:42.805Z,92.7
2017-07-27T04:05:41.997Z,92.7
2017-07-27T04:06:41.197Z,92.7
2017-07-27T04:07:40.680Z,92.6
2017-07-27T04:08:39.877Z,92.6
2017-07-27T04:09:38.965Z,92.6
2017-07-27T04:10:38.162Z,92.6
2017-07-27T04:11:37.359Z,92.5
2017-07-27T04:12:36.325Z,92.5
2017-07-27T04:13:06.840Z,92.5
2017-07-27T04:13:37.116Z,92.5
2017-07-27T04:14:35.190Z,92.4
2017-07-27T04:15:34.035Z,92.3
2017-07-27T04:16:33.758Z,92.3
2017-07-27T04:18:32.233Z,92.2
2017-07-27T04:19:31.315Z,92
2017-07-27T04:20:30.517Z,92
2017-07-27T04:21:29.721Z,91.9
2017-07-27T04:22:28.927Z,91.8
2017-07-27T04:23:28.508Z,91.5
2017-07-27T04:23:59.028Z,91.5
2017-07-27T04:24:29.530Z,91.4
2017-07-27T04:24:59.925Z,91.4
2017-07-27T04:25:30.312Z,91.4
2017-07-27T04:26:00.808Z,91.4
2017-07-27T04:26:31.319Z,90.5
2017-07-27T04:27:25.490Z,90.4
2017-07-27T04:28:24.447Z,90
2017-07-27T04:29:24.029Z,89.6
2017-07-27T04:31:22.110Z,89.2
2017-07-27T04:32:21.305Z,88.9
2017-07-27T04:33:20.916Z,88.7
2017-07-27T04:34:20.118Z,88.2
2017-07-27T04:35:19.324Z,88.2
2017-07-27T04:36:18.533Z,87.5
2017-07-27T04:37:17.730Z,86.8
2017-07-27T04:38:16.817Z,86.8
2017-07-27T04:39:16.414Z,86.4
2017-07-27T04:40:15.617Z,86
2017-07-27T04:41:14.813Z,85.8
2017-07-27T04:42:13.901Z,85.6
2017-07-27T04:43:12.896Z,85.2
2017-07-27T04:44:12.619Z,84.9
2017-07-27T04:45:11.700Z,84.5
2017-07-27T04:46:10.682Z,83.9
2017-07-27T04:47:10.150Z,83.3
2017-07-27T04:48:09.237Z,83.3
2017-07-27T04:49:08.696Z,83.3
2017-07-27T04:50:07.791Z,83.2
2017-07-27T04:51:07.004Z,83
2017-07-27T04:52:05.972Z,82.6
2017-07-27T04:53:05.670Z,81.8
2017-07-27T04:55:04.145Z,81.7
2017-07-27T04:56:03.118Z,81.6
2017-07-27T04:57:02.318Z,81.4
2017-07-27T04:58:01.522Z,81.4
2017-07-27T04:59:01.106Z,81.3
2017-07-27T05:00:00.302Z,81
2017-07-27T05:00:59.384Z,80.3
2017-07-27T05:01:58.585Z,80.2
2017-07-27T05:02:57.661Z,80.2
2017-07-27T05:03:57.303Z,79.6
2017-07-27T05:04:56.401Z,79.4
2017-07-27T05:05:55.478Z,79.4
2017-07-27T05:06:54.681Z,79.8
2017-07-27T05:07:54.279Z,80
2017-07-27T05:08:53.377Z,79.7
2017-07-27T05:09:52.460Z,80
2017-07-27T05:10:51.658Z,80.2
2017-07-27T05:11:51.016Z,79.3
2017-07-27T05:12:50.217Z,79.5
2017-07-27T05:13:49.420Z,79.8
2017-07-27T05:14:48.612Z,80.1
2017-07-27T05:15:48.323Z,79.2
2017-07-27T05:16:47.423Z,79.1
2017-07-27T05:17:46.498Z,78.2
2017-07-27T05:18:45.582Z,78
2017-07-27T05:19:15.973Z,78
2017-07-27T05:19:46.246Z,77.7
2017-07-27T05:20:16.913Z,77.7
2017-07-27T05:20:47.426Z,77.8
2017-07-27T05:21:17.952Z,77.8
2017-07-27T05:22:42.812Z,76.8
2017-07-27T05:23:41.896Z,76.8
2017-07-27T05:24:41.088Z,76.8
2017-07-27T05:25:40.300Z,76.5
2017-07-27T05:26:39.889Z,75.9
2017-07-27T05:27:39.092Z,75.3
2017-07-27T05:28:37.931Z,74.8
2017-07-27T05:29:37.637Z,75.4
2017-07-27T05:30:36.828Z,74.5
2017-07-27T05:31:35.908Z,74.4
2017-07-27T05:32:06.424Z,74.4
2017-07-27T05:32:36.805Z,74.4
2017-07-27T05:33:07.206Z,74.4
2017-07-27T05:33:37.587Z,74.4
2017-07-27T05:34:07.854Z,74.4
2017-07-27T05:35:32.717Z,73.2
2017-07-27T05:36:32.427Z,72.9
2017-07-27T05:37:31.635Z,72.1
2017-07-27T05:38:30.718Z,72
2017-07-27T05:39:29.939Z,72.1
2017-07-27T05:40:29.134Z,72.1
2017-07-27T05:41:28.335Z,72.1
2017-07-27T05:42:27.936Z,70.5
2017-07-27T05:43:27.019Z,71.6
2017-07-27T05:44:26.098Z,71.3
2017-07-27T05:45:25.691Z,70.3
2017-07-27T05:46:24.535Z,70.1
2017-07-27T05:47:23.631Z,69.8
2017-07-27T05:48:23.351Z,70.2
2017-07-27T05:49:22.559Z,70.2
2017-07-27T05:50:21.522Z,70.9
2017-07-27T05:51:20.879Z,69.7
2017-07-27T05:52:20.086Z,69.5
2017-07-27T05:53:19.684Z,69.9
2017-07-27T05:54:18.899Z,69.4
2017-07-27T05:55:17.988Z,69.4
2017-07-27T05:56:17.188Z,69.6
2017-07-27T05:57:16.392Z,69.3
2017-07-27T05:58:15.589Z,69.3
2017-07-27T05:59:14.667Z,68.4
2017-07-27T06:00:14.128Z,68.8
2017-07-27T06:01:13.098Z,68.3
2017-07-27T06:02:12.570Z,68.3
2017-07-27T06:03:11.780Z,68.4
2017-07-27T06:04:11.137Z,67.1
2017-07-27T06:05:10.332Z,67.7
2017-07-27T06:06:09.659Z,69
2017-07-27T06:07:08.645Z,68.6
2017-07-27T06:08:08.362Z,69.7
2017-07-27T06:09:07.440Z,69.3
2017-07-27T06:10:06.533Z,68.7
2017-07-27T06:11:06.123Z,67.3
2017-07-27T06:11:36.630Z,67.3
2017-07-27T06:12:06.914Z,67.9
2017-07-27T06:12:37.816Z,67.9
2017-07-27T06:13:08.342Z,67.8
2017-07-27T06:13:38.624Z,67.8
2017-07-27T06:15:03.000Z,68.1
2017-07-27T06:16:02.091Z,68.1
2017-07-27T06:17:01.673Z,67.7
2017-07-27T06:18:00.645Z,67.4
2017-07-27T06:19:00.243Z,67.6
2017-07-27T06:19:59.204Z,67.5
2017-07-27T06:20:58.401Z,66.9
2017-07-27T06:21:58.142Z,67
2017-07-27T06:22:57.350Z,66.9
2017-07-27T06:23:56.574Z,66.4
2017-07-27T06:24:55.781Z,67.3
2017-07-27T06:25:54.509Z,66.7
2017-07-27T06:26:54.086Z,65.8
2017-07-27T06:27:53.554Z,65.7
2017-07-27T06:28:52.776Z,65.4
2017-07-27T06:29:51.858Z,65.1
2017-07-27T06:30:51.212Z,65.6
2017-07-27T06:31:50.068Z,65.6
2017-07-27T06:32:49.770Z,65.6
2017-07-27T06:33:49.175Z,64.2
2017-07-27T06:34:48.254Z,66.2
2017-07-27T06:35:47.339Z,65.4
2017-07-27T06:36:46.952Z,65.8
2017-07-27T06:37:46.033Z,66.1
2017-07-27T06:38:45.616Z,66
2017-07-27T06:39:44.827Z,65.8
2017-07-27T06:40:44.038Z,66.4
2017-07-27T06:41:43.006Z,65.2
2017-07-27T06:42:42.710Z,65.9
2017-07-27T06:43:13.230Z,65.9
2017-07-27T06:43:43.624Z,65.7
2017-07-27T06:44:14.012Z,65.7
2017-07-27T06:44:44.517Z,65.6
2017-07-27T06:45:40.181Z,65.7
2017-07-27T06:46:39.397Z,66.2
2017-07-27T06:47:39.099Z,65.7
2017-07-27T06:48:38.298Z,64.7
2017-07-27T06:49:37.505Z,64.7
2017-07-27T06:50:36.711Z,64.7
2017-07-27T06:51:35.786Z,63
2017-07-27T06:52:35.370Z,63.1
2017-07-27T06:53:34.565Z,61.7
2017-07-27T06:54:33.647Z,61.8
2017-07-27T06:55:33.367Z,60.9
2017-07-27T06:56:32.569Z,62.4
2017-07-27T06:57:31.646Z,62.1
2017-07-27T06:58:30.731Z,60.9
2017-07-27T06:59:30.310Z,61.4
2017-07-27T07:00:29.513Z,60
2017-07-27T07:01:28.372Z,61
2017-07-27T07:02:27.946Z,59.5
2017-07-27T07:03:27.024Z,59.2
2017-07-27T07:04:26.499Z,60.5
2017-07-27T07:05:25.852Z,59
2017-07-27T07:06:25.052Z,59
2017-07-27T07:07:24.757Z,59
2017-07-27T07:08:23.846Z,59.7
2017-07-27T07:09:23.037Z,59.7
2017-07-27T07:10:22.632Z,60.1
2017-07-27T07:11:21.725Z,60.1
2017-07-27T07:12:21.196Z,59.4
2017-07-27T07:13:20.392Z,59.9
2017-07-27T07:14:19.591Z,59.2
2017-07-27T07:15:18.799Z,58.5
2017-07-27T07:16:18.009Z,58.2
2017-07-27T07:17:17.114Z,57.2
2017-07-27T07:18:16.709Z,57.7
2017-07-27T07:18:46.997Z,57.7
2017-07-27T07:19:17.519Z,58
2017-07-27T07:19:48.035Z,58
2017-07-27T07:20:18.552Z,56.1
2017-07-27T07:20:49.060Z,56.1
2017-07-27T07:22:13.690Z,56
2017-07-27T07:23:13.430Z,57
2017-07-27T07:24:12.641Z,57
2017-07-27T07:25:11.718Z,57.8
2017-07-27T07:26:11.192Z,54.8
2017-07-27T07:27:10.411Z,54.1
2017-07-27T07:28:09.490Z,57.1
2017-07-27T07:29:09.178Z,55.3
2017-07-27T07:30:08.397Z,55.1
2017-07-27T07:31:07.602Z,54
2017-07-27T07:32:06.564Z,55.6
2017-07-27T07:33:05.932Z,55.9
2017-07-27T07:34:05.520Z,56.4
2017-07-27T07:36:03.889Z,58
2017-07-27T07:37:03.593Z,57.3
2017-07-27T07:38:02.683Z,58.1
2017-07-27T07:38:33.073Z,58.1
2017-07-27T07:39:03.593Z,58.9
2017-07-27T07:39:34.117Z,58.9
2017-07-27T07:40:04.630Z,58.6
2017-07-27T07:40:35.155Z,58.6
2017-07-27T07:42:00.031Z,59.2
2017-07-27T07:42:59.248Z,60.9
2017-07-27T07:43:58.460Z,61.2
2017-07-27T07:44:58.172Z,62
2017-07-27T07:45:57.259Z,60.7
2017-07-27T07:46:56.458Z,61.1
2017-07-27T07:47:56.157Z,61.5
2017-07-27T07:48:55.362Z,60.7
2017-07-27T07:49:54.553Z,61.2
2017-07-27T07:50:24.944Z,61.2
2017-07-27T07:50:55.477Z,62.2
2017-07-27T07:51:25.999Z,62.2
2017-07-27T07:51:56.272Z,62.2
2017-07-27T07:52:26.786Z,62.2
2017-07-27T07:52:57.059Z,62.9
2017-07-27T07:53:27.458Z,62.9
2017-07-27T07:54:51.201Z,62.6
2017-07-27T07:55:50.408Z,62
2017-07-27T07:56:49.609Z,62.3
2017-07-27T07:58:48.309Z,62.3
2017-07-27T07:59:47.523Z,62.6
2017-07-27T08:00:47.229Z,62.8
2017-07-27T08:01:46.430Z,61.3
2017-07-27T08:02:45.630Z,61.5
2017-07-27T08:03:44.597Z,61.4
2017-07-27T08:04:44.300Z,61.5
2017-07-27T08:05:43.479Z,61
2017-07-27T08:06:43.070Z,62
2017-07-27T08:07:42.147Z,61.5
2017-07-27T08:08:41.859Z,60.8
2017-07-27T08:09:41.060Z,61.4
2017-07-27T08:10:40.255Z,60.8
2017-07-27T08:11:39.838Z,60.4
2017-07-27T08:12:39.039Z,61.9
2017-07-27T08:13:38.239Z,61.6
2017-07-27T08:14:37.426Z,61.3
2017-07-27T08:15:37.011Z,61.3
2017-07-27T08:16:36.110Z,61.3
2017-07-27T08:17:35.690Z,61.7
2017-07-27T08:18:34.898Z,61.2
2017-07-27T08:19:34.488Z,62
2017-07-27T08:20:33.452Z,62.1
2017-07-27T08:21:33.160Z,61.9
2017-07-27T08:22:32.367Z,62.3
2017-07-27T08:23:31.591Z,62.2
2017-07-27T08:24:30.790Z,61.6
2017-07-27T08:25:30.377Z,61
2017-07-27T08:26:29.339Z,62.4
2017-07-27T08:27:29.384Z,62.6
2017-07-27T08:28:27.836Z,63
2017-07-27T08:29:27.307Z,62.9
2017-07-27T08:30:26.781Z,62.5
2017-07-27T08:31:26.259Z,62.8
2017-07-27T08:31:56.660Z,62.8
2017-07-27T08:32:27.082Z,63.6
2017-07-27T08:32:57.867Z,63.6
2017-07-27T08:34:24.265Z,62.9
2017-07-27T08:35:23.471Z,62.5
2017-07-27T08:36:22.680Z,63.7
2017-07-27T08:37:22.252Z,63.7
2017-07-27T08:38:21.450Z,64.8
2017-07-27T08:39:20.660Z,65.2
2017-07-27T08:40:20.348Z,64.7
2017-07-27T08:41:19.429Z,64.8
2017-07-27T08:42:19.145Z,64.9
2017-07-27T08:42:49.659Z,64.9
2017-07-27T08:44:17.549Z,64.6
2017-07-27T08:45:16.755Z,64.1
2017-07-27T08:46:15.961Z,64.9
2017-07-27T08:47:15.696Z,65.7
2017-07-27T08:48:14.903Z,65.5
2017-07-27T08:49:14.108Z,66
2017-07-27T08:50:13.322Z,66
2017-07-27T08:51:12.802Z,66
2017-07-27T08:52:12.378Z,65.1
2017-07-27T08:53:11.594Z,65.5
2017-07-27T08:54:10.800Z,64.9
2017-07-27T08:55:09.997Z,65.4
2017-07-27T08:56:09.585Z,66.2
2017-07-27T08:57:08.790Z,65.8
2017-07-27T08:58:07.862Z,64.9
2017-07-27T08:59:07.339Z,66
2017-07-27T09:00:06.808Z,65.5
2017-07-27T09:01:06.017Z,65.4
2017-07-27T09:02:05.126Z,65.7
2017-07-27T09:03:04.714Z,64.9
2017-07-27T09:04:03.921Z,65
2017-07-27T09:05:03.500Z,65.3
2017-07-27T09:06:02.698Z,64.8
2017-07-27T09:07:02.288Z,66
2017-07-27T09:08:01.257Z,66
2017-07-27T09:09:00.461Z,66
2017-07-27T09:10:00.156Z,66
2017-07-27T09:10:59.358Z,66.8
2017-07-27T09:11:58.570Z,66.5
2017-07-27T09:12:58.050Z,66.4
2017-07-27T09:13:57.251Z,67.1
2017-07-27T09:14:56.450Z,66.8
2017-07-27T09:15:56.152Z,67.6
2017-07-27T09:16:55.121Z,67.4
2017-07-27T09:17:54.326Z,67.3
2017-07-27T09:18:54.045Z,67.5
2017-07-27T09:19:53.012Z,67.7
2017-07-27T09:20:52.724Z,67.7
2017-07-27T09:21:51.816Z,67.5
2017-07-27T09:22:51.179Z,67.7
2017-07-27T09:23:50.381Z,67.6
2017-07-27T09:24:49.871Z,67.9
2017-07-27T09:25:49.072Z,67.9
2017-07-27T09:26:48.684Z,67.9
2017-07-27T09:27:47.892Z,67.2
2017-07-27T09:28:47.084Z,67.2
2017-07-27T09:29:46.285Z,67.1
2017-07-27T09:30:45.492Z,67.7
2017-07-27T09:31:44.977Z,67.9
2017-07-27T09:32:44.231Z,67.1
2017-07-27T09:33:43.933Z,67.1
2017-07-27T09:34:43.142Z,68.2
2017-07-27T09:35:42.354Z,67.9
2017-07-27T09:36:41.442Z,67.6
2017-07-27T09:37:41.146Z,67.5
2017-07-27T09:38:40.232Z,68.2
2017-07-27T09:39:10.735Z,68.2
2017-07-27T09:39:41.129Z,67.2
2017-07-27T09:40:11.390Z,67.2
2017-07-27T09:40:41.789Z,68.8
2017-07-27T09:41:12.177Z,68.8
2017-07-27T09:41:42.690Z,68.5
2017-07-27T09:42:13.097Z,68.5
2017-07-27T09:43:36.839Z,68.8
2017-07-27T09:44:35.934Z,69.2
2017-07-27T09:45:35.401Z,67.7
2017-07-27T09:46:34.986Z,68.8
2017-07-27T09:47:33.840Z,68.7
2017-07-27T09:48:33.425Z,69
2017-07-27T09:49:33.022Z,69.1
2017-07-27T09:50:31.986Z,68.9
2017-07-27T09:51:31.450Z,68.9
2017-07-27T09:52:30.659Z,68.7
2017-07-27T09:53:01.054Z,68.7
2017-07-27T09:53:31.567Z,68.3
2017-07-27T09:54:02.090Z,68.3
2017-07-27T09:54:32.604Z,68.9
2017-07-27T09:55:28.544Z,69.2
2017-07-27T09:56:28.250Z,69
2017-07-27T09:57:27.092Z,69.1
2017-07-27T09:58:26.443Z,69.1
2017-07-27T09:58:57.347Z,69.1
2017-07-27T09:59:27.505Z,69.5
2017-07-27T10:00:25.202Z,69
2017-07-27T10:01:24.803Z,69
2017-07-27T10:02:23.878Z,69.1
2017-07-27T10:03:23.088Z,69.1
2017-07-27T10:04:22.794Z,69.4
2017-07-27T10:05:21.888Z,70.1
2017-07-27T10:06:21.088Z,69.9
2017-07-27T10:07:20.786Z,70.1
2017-07-27T10:08:19.874Z,70.7
2017-07-27T10:09:19.352Z,71
2017-07-27T10:10:18.207Z,70.7
2017-07-27T10:10:48.606Z,70.7
2017-07-27T10:11:19.280Z,71.2
2017-07-27T10:11:49.462Z,71.2
2017-07-27T10:12:19.991Z,70.8
2017-07-27T10:12:50.501Z,70.8
2017-07-27T10:14:15.865Z,71.4
2017-07-27T10:15:15.083Z,72.1
2017-07-27T10:16:14.283Z,72.9
2017-07-27T10:17:13.754Z,73.5
2017-07-27T10:18:13.348Z,73.5
2017-07-27T10:19:12.556Z,73.5
2017-07-27T10:20:11.756Z,73.3
2017-07-27T10:21:10.839Z,73.9
2017-07-27T10:22:10.543Z,73.9
2017-07-27T10:23:09.620Z,74.9
2017-07-27T10:24:08.582Z,74.4
2017-07-27T10:25:08.168Z,74.2
2017-07-27T10:26:07.751Z,74.6
2017-07-27T10:27:06.838Z,74.3
2017-07-27T10:28:05.919Z,74.7
2017-07-27T10:29:05.505Z,74.8
2017-07-27T10:30:04.720Z,74.7
2017-07-27T10:31:04.428Z,74.2
2017-07-27T10:32:03.514Z,73.5
2017-07-27T10:33:02.715Z,73.5
2017-07-27T10:34:02.181Z,72.9
2017-07-27T10:35:01.390Z,71.9
2017-07-27T10:36:00.591Z,71.9
2017-07-27T10:37:00.290Z,71.9
2017-07-27T10:37:59.498Z,72.4
2017-07-27T10:38:58.708Z,72.4
2017-07-27T10:39:57.911Z,72.9
2017-07-27T10:40:57.606Z,72.3
2017-07-27T10:41:56.799Z,72
2017-07-27T10:42:55.651Z,72.7
2017-07-27T10:43:55.247Z,72.6
2017-07-27T10:44:54.593Z,71.7
2017-07-27T10:45:53.668Z,71.9
2017-07-27T10:46:53.134Z,71
2017-07-27T10:47:52.847Z,71.5
2017-07-27T10:48:23.248Z,71.5
2017-07-27T10:48:53.661Z,72.3
2017-07-27T10:49:51.233Z,71.3
2017-07-27T10:50:50.429Z,70.8
2017-07-27T10:51:50.013Z,71
2017-07-27T10:52:49.096Z,70.8
2017-07-27T10:53:19.477Z,70.8
2017-07-27T10:54:47.862Z,70.3
2017-07-27T10:55:47.439Z,70.2
2017-07-27T10:56:46.517Z,70.4
2017-07-27T10:57:45.601Z,70.3
2017-07-27T10:58:45.190Z,69.8
2017-07-27T10:59:44.272Z,70.4
2017-07-27T11:00:43.986Z,70
2017-07-27T11:01:43.069Z,70.2
2017-07-27T11:02:42.654Z,70
2017-07-27T11:03:41.755Z,70.4
2017-07-27T11:04:40.957Z,70.1
2017-07-27T11:05:40.535Z,70.2
2017-07-27T11:06:39.751Z,70.7
2017-07-27T11:07:38.965Z,70
2017-07-27T11:08:38.178Z,70.4
2017-07-27T11:09:08.692Z,70.4
2017-07-27T11:10:37.087Z,70.4
2017-07-27T11:11:36.176Z,70.4
2017-07-27T11:12:35.890Z,70.4
2017-07-27T11:13:35.086Z,70.8
2017-07-27T11:14:34.281Z,70.4
2017-07-27T11:15:33.472Z,70.3
2017-07-27T11:16:33.072Z,69.7
2017-07-27T11:17:32.029Z,69.4
2017-07-27T11:18:31.743Z,70.1
2017-07-27T11:19:30.942Z,70.4
2017-07-27T11:20:30.143Z,69.3
2017-07-27T11:21:00.653Z,69.3
2017-07-27T11:21:31.171Z,69.1
2017-07-27T11:22:28.884Z,69.5
2017-07-27T11:23:28.464Z,69
2017-07-27T11:24:27.542Z,69.2
2017-07-27T11:25:26.745Z,69.1
2017-07-27T11:26:26.331Z,68.3
2017-07-27T11:27:25.540Z,68.9
2017-07-27T11:28:24.752Z,68.8
2017-07-27T11:29:24.344Z,68.8
2017-07-27T11:29:54.747Z,68.8
2017-07-27T11:30:25.141Z,68.8
2017-07-27T11:31:22.845Z,68.8
2017-07-27T11:32:22.047Z,68.8
2017-07-27T11:33:21.759Z,69.1
2017-07-27T11:34:20.958Z,69
2017-07-27T11:35:19.919Z,68.4
2017-07-27T11:36:19.390Z,68.5
2017-07-27T11:37:19.107Z,68.5
2017-07-27T11:38:18.182Z,68.7
2017-07-27T11:39:17.646Z,68.7
2017-07-27T11:40:16.854Z,69.3
2017-07-27T11:41:15.947Z,70.4
2017-07-27T11:43:15.036Z,71.7
2017-07-27T11:44:14.238Z,72.2
2017-07-27T11:45:13.448Z,72.6
2017-07-27T11:46:13.167Z,72.4
2017-07-27T11:47:12.251Z,72.4
2017-07-27T11:48:11.348Z,72.9
2017-07-27T11:49:11.045Z,73.7
2017-07-27T11:50:10.236Z,73.7
2017-07-27T11:51:09.429Z,74
2017-07-27T11:52:09.026Z,73.6
2017-07-27T11:53:08.235Z,72.4
2017-07-27T11:54:07.079Z,72.7
2017-07-27T11:55:06.764Z,72.8
2017-07-27T11:56:06.463Z,73.3
2017-07-27T11:57:05.680Z,73.4
2017-07-27T11:58:04.889Z,73.2
2017-07-27T11:59:04.092Z,73.3
2017-07-27T11:59:34.374Z,73.3
2017-07-27T12:00:04.889Z,73.9
2017-07-27T12:00:35.163Z,73.9
2017-07-27T12:01:05.562Z,73.5
2017-07-27T12:01:36.068Z,73.5
2017-07-27T12:02:06.581Z,74.1
2017-07-27T12:02:36.970Z,74.1
2017-07-27T12:03:07.482Z,73.7
2017-07-27T12:03:37.999Z,73.7
2017-07-27T12:05:00.341Z,74.1
2017-07-27T12:05:59.534Z,74.1
2017-07-27T12:06:58.749Z,73.2
2017-07-27T12:07:57.954Z,72.7
2017-07-27T12:08:57.415Z,72.2
2017-07-27T12:09:56.491Z,72
2017-07-27T12:10:56.191Z,71.5
2017-07-27T12:11:55.654Z,71.7
2017-07-27T12:12:54.866Z,71.1
2017-07-27T12:13:25.373Z,71.1
2017-07-27T12:13:55.640Z,71.1
2017-07-27T12:14:53.349Z,71.1
2017-07-27T12:15:52.940Z,70.6
2017-07-27T12:16:52.026Z,69
2017-07-27T12:17:51.607Z,68.1
2017-07-27T12:18:50.574Z,68.2
2017-07-27T12:19:50.169Z,68.8
2017-07-27T12:20:49.376Z,68.5
2017-07-27T12:22:48.351Z,68.2
2017-07-27T12:23:47.558Z,67.5
2017-07-27T12:24:46.762Z,68
2017-07-27T12:25:46.348Z,67.4
2017-07-27T12:26:45.424Z,67.6
2017-07-27T12:27:45.136Z,67.5
2017-07-27T12:28:44.216Z,67.1
2017-07-27T12:29:43.417Z,66.1
2017-07-27T12:30:43.001Z,65.8
2017-07-27T12:31:42.084Z,66.4
2017-07-27T12:32:12.629Z,66.4
2017-07-27T12:32:42.915Z,65.5
2017-07-27T12:33:13.312Z,65.5
2017-07-27T12:34:39.965Z,65.9
2017-07-27T12:35:39.680Z,65.7
2017-07-27T12:36:38.886Z,65.3
2017-07-27T12:37:38.475Z,65.7
2017-07-27T12:38:37.562Z,65.6
2017-07-27T12:39:37.264Z,65.6